Time;durP1;ratioP1;P1;durP2;ratioP2;P2;SDS_P1;SDS_P2;PMS_P1;PMS_P2;Temp;Humidity;BMP_temperature;BMP_pressure;BME280_temperature;BME280_humidity;BME280_pressure;Samples;Min_cycle;Max_cycle;Signal;HPM_P1;HPM_P2
2023/04/26 00:00:29;;;;;;;;;;;;;;;13.51;83.89;97787.44;5030603;28;19979;-81
2023/04/26 00:02:55;;;;;;;;;;;;;;;13.51;83.89;97787.44;5014094;28;20326;-80
2023/04/26 00:05:21;;;;;;;;;;;;;;;13.43;83.79;97788.06;5014952;28;19933;-81
2023/04/26 00:07:49;;;;;;;;;;;;;;;13.44;83.92;97786.97;4990677;28;19934;-81
2023/04/26 00:10:16;;;;;;;;;;;;;;;13.42;84.32;97789.16;5023258;28;20478;-81
2023/04/26 00:12:42;;;;;;;;;;;;;;;13.42;84.32;97795.31;5025587;28;19925;-82
2023/04/26 00:15:09;;;;;;;;;;;;;;;13.44;84.04;97793.13;5003375;28;19980;-81
2023/04/26 00:17:36;;;;;;;;;;;;;;;13.39;84.64;97792.38;5016570;28;19991;-81
2023/04/26 00:20:03;;;;;;;;;;;;;;;13.42;84.98;97787.25;5026730;28;19987;-80
2023/04/26 00:22:30;;;;;;;;;;;;;;;13.34;85.05;97798.59;5012011;28;19979;-81
2023/04/26 00:24:57;;;;;;;;;;;;;;;13.41;85.10;97790.22;5014275;28;19940;-81
2023/04/26 00:27:26;;;;;;;;;;;;;;;13.37;84.98;97791.84;5039714;28;19940;-82
2023/04/26 00:29:53;;;;;;;;;;;;;;;13.31;85.80;97798.34;5028426;28;19925;-80
2023/04/26 00:32:19;;;;;;;;;;;;;;;13.33;86.25;97796.22;5007509;28;19930;-82
2023/04/26 00:34:46;;;;;;;;;;;;;;;13.14;87.88;97798.00;5014120;28;19933;-81
2023/04/26 00:37:12;;;;;;;;;;;;;;;13.22;87.79;97789.31;5011751;28;19932;-82
2023/04/26 00:39:39;;;;;;;;;;;;;;;13.21;87.39;97793.09;5029715;28;19991;-81
2023/04/26 00:42:07;;;;;;;;;;;;;;;13.15;87.84;97789.66;5031917;28;19928;-82
2023/04/26 00:44:33;;;;;;;;;;;;;;;13.08;88.56;97789.19;5030122;28;19925;-82
2023/04/26 00:47:00;;;;;;;;;;;;;;;13.14;88.77;97792.63;5014941;28;19925;-81
2023/04/26 00:49:26;;;;;;;;;;;;;;;13.11;88.54;97788.63;5019805;28;19948;-82
2023/04/26 00:51:53;;;;;;;;;;;;;;;13.12;88.64;97786.75;5015076;28;20067;-82
2023/04/26 00:54:20;;;;;;;;;;;;;;;13.06;88.68;97785.94;5006905;28;20023;-80
2023/04/26 00:56:47;;;;;;;;;;;;;;;13.09;89.01;97785.41;5013185;28;19933;-81
2023/04/26 00:59:14;;;;;;;;;;;;;;;13.08;89.02;97789.19;5007610;28;19925;-81
2023/04/26 01:01:41;;;;;;;;;;;;;;;13.04;89.07;97793.47;5023918;28;19929;-82
2023/04/26 01:04:08;;;;;;;;;;;;;;;13.02;89.46;97792.97;5013313;28;19968;-83
2023/04/26 01:06:37;;;;;;;;;;;;;;;12.96;89.61;97792.22;5016051;28;19925;-80
2023/04/26 01:09:06;;;;;;;;;;;;;;;13.01;89.83;97796.72;5031689;28;19925;-81
2023/04/26 01:11:33;;;;;;;;;;;;;;;12.95;89.48;97797.84;5032864;28;19935;-82
2023/04/26 01:13:59;;;;;;;;;;;;;;;12.89;90.23;97802.47;5018950;28;20396;-81
2023/04/26 01:16:28;;;;;;;;;;;;;;;12.96;89.79;97807.50;5031900;28;19933;-83
2023/04/26 01:18:54;;;;;;;;;;;;;;;12.94;89.66;97801.59;5031037;28;20036;-81
2023/04/26 01:21:21;;;;;;;;;;;;;;;12.96;89.82;97805.63;5007039;28;20573;-83
2023/04/26 01:23:49;;;;;;;;;;;;;;;13.00;89.77;97809.31;5011777;28;19929;-81
2023/04/26 01:26:16;;;;;;;;;;;;;;;13.00;90.04;97798.59;5027373;28;19929;-81
2023/04/26 01:28:42;;;;;;;;;;;;;;;12.94;89.71;97802.41;5029042;28;19925;-80
2023/04/26 01:31:09;;;;;;;;;;;;;;;12.98;89.95;97799.97;5027739;28;19929;-81
2023/04/26 01:33:35;;;;;;;;;;;;;;;12.90;89.72;97793.31;5026699;28;19961;-80
2023/04/26 01:36:01;;;;;;;;;;;;;;;12.97;90.39;97801.84;5029441;28;19930;-83
2023/04/26 01:38:28;;;;;;;;;;;;;;;12.83;90.11;97802.78;5023336;28;20466;-82
2023/04/26 01:40:56;;;;;;;;;;;;;;;12.85;90.59;97806.78;5026638;28;20495;-80
2023/04/26 01:43:22;;;;;;;;;;;;;;;12.86;90.66;97791.50;5016451;28;19941;-79
2023/04/26 01:45:48;;;;;;;;;;;;;;;12.87;90.35;97793.09;4990417;28;19987;-81
2023/04/26 01:48:15;;;;;;;;;;;;;;;12.89;90.32;97801.66;5006554;28;19929;-81
2023/04/26 01:50:41;;;;;;;;;;;;;;;12.88;90.27;97810.75;5011873;28;20020;-81
2023/04/26 01:53:08;;;;;;;;;;;;;;;12.79;90.19;97807.88;5012803;28;20392;-82
2023/04/26 01:55:34;;;;;;;;;;;;;;;12.74;90.60;97810.63;5016263;28;20105;-81
2023/04/26 01:58:02;;;;;;;;;;;;;;;12.80;90.76;97811.38;5018853;28;19983;-83
2023/04/26 02:00:29;;;;;;;;;;;;;;;12.79;90.84;97813.25;5020396;28;19961;-81
2023/04/26 02:02:55;;;;;;;;;;;;;;;12.74;90.68;97815.97;5017006;28;20007;-80
2023/04/26 02:05:22;;;;;;;;;;;;;;;12.74;91.07;97810.63;5018243;28;19968;-81
2023/04/26 02:07:48;;;;;;;;;;;;;;;12.72;90.99;97811.97;5015155;28;19929;-82
2023/04/26 02:10:15;;;;;;;;;;;;;;;12.62;91.26;97818.19;5025504;28;19929;-80
2023/04/26 02:12:41;;;;;;;;;;;;;;;12.58;91.62;97811.78;5019889;28;19976;-80
2023/04/26 02:15:09;;;;;;;;;;;;;;;12.57;92.11;97812.84;5031848;28;19956;-81
2023/04/26 02:17:36;;;;;;;;;;;;;;;12.59;92.23;97823.31;5028571;28;19979;-80
2023/04/26 02:20:03;;;;;;;;;;;;;;;12.60;91.79;97825.69;5030756;28;19945;-81
2023/04/26 02:22:30;;;;;;;;;;;;;;;12.60;92.29;97820.34;5029747;28;19925;-81
2023/04/26 02:24:56;;;;;;;;;;;;;;;12.57;91.98;97820.09;5018969;28;19983;-80
2023/04/26 02:27:22;;;;;;;;;;;;;;;12.56;91.86;97819.31;5026197;28;19925;-81
2023/04/26 02:29:49;;;;;;;;;;;;;;;12.51;92.13;97819.31;5028811;28;19932;-81
2023/04/26 02:32:17;;;;;;;;;;;;;;;12.50;92.16;97808.91;5029583;28;19925;-80
2023/04/26 02:34:44;;;;;;;;;;;;;;;12.51;92.06;97816.66;5029642;28;19965;-81
2023/04/26 02:37:10;;;;;;;;;;;;;;;12.45;91.98;97823.13;5028870;28;20010;-81
2023/04/26 02:39:37;;;;;;;;;;;;;;;12.38;92.62;97817.25;5028343;28;19964;-82
2023/04/26 02:42:03;;;;;;;;;;;;;;;12.31;92.75;97816.78;5029801;28;20489;-81
2023/04/26 02:44:30;;;;;;;;;;;;;;;12.30;92.81;97815.16;5030845;28;19926;-81
2023/04/26 02:46:57;;;;;;;;;;;;;;;12.34;92.64;97816.22;5027757;28;20404;-80
2023/04/26 02:49:24;;;;;;;;;;;;;;;12.39;92.46;97818.88;5026509;28;19968;-80
2023/04/26 02:51:51;;;;;;;;;;;;;;;12.37;91.89;97818.34;5026625;28;20407;-81
2023/04/26 02:54:17;;;;;;;;;;;;;;;12.32;91.81;97813.00;5024073;28;19933;-80
2023/04/26 02:56:43;;;;;;;;;;;;;;;12.33;91.84;97830.69;5022309;28;20008;-81
2023/04/26 02:59:10;;;;;;;;;;;;;;;12.31;91.53;97827.50;5022897;28;20035;-81
2023/04/26 03:01:36;;;;;;;;;;;;;;;12.32;91.63;97815.69;5038560;28;20023;-81
2023/04/26 03:04:03;;;;;;;;;;;;;;;12.30;91.63;97823.19;5024968;28;19982;-81
2023/04/26 03:06:30;;;;;;;;;;;;;;;12.30;91.24;97820.53;5030588;28;19957;-81
2023/04/26 03:08:57;;;;;;;;;;;;;;;12.28;91.18;97817.31;5032187;28;19999;-80
2023/04/26 03:11:26;;;;;;;;;;;;;;;12.23;90.92;97814.66;5020758;28;19956;-81
2023/04/26 03:13:52;;;;;;;;;;;;;;;12.20;90.88;97820.56;5021998;28;19936;-80
2023/04/26 03:16:19;;;;;;;;;;;;;;;12.22;91.26;97821.91;5025846;28;19968;-81
2023/04/26 03:18:45;;;;;;;;;;;;;;;12.25;91.11;97828.59;5026006;28;20346;-81
2023/04/26 03:21:11;;;;;;;;;;;;;;;12.22;90.80;97837.19;5038197;28;19929;-80
2023/04/26 03:23:39;;;;;;;;;;;;;;;12.17;91.01;97835.31;5010879;28;20035;-80
2023/04/26 03:26:05;;;;;;;;;;;;;;;12.17;91.07;97835.31;5018533;28;19987;-81
2023/04/26 03:28:32;;;;;;;;;;;;;;;12.20;91.07;97836.63;5012848;28;19957;-80
2023/04/26 03:30:58;;;;;;;;;;;;;;;12.14;91.15;97845.75;5016121;28;19964;-81
2023/04/26 03:33:27;;;;;;;;;;;;;;;12.08;91.38;97822.75;5028876;28;20024;-81
2023/04/26 03:35:53;;;;;;;;;;;;;;;12.13;91.43;97841.50;5019723;28;19973;-81
2023/04/26 03:38:19;;;;;;;;;;;;;;;12.10;91.50;97836.69;5024671;28;20011;-81
2023/04/26 03:40:47;;;;;;;;;;;;;;;12.09;91.40;97835.88;5013408;28;20381;-81
2023/04/26 03:43:13;;;;;;;;;;;;;;;11.94;91.50;97841.31;5019917;28;20595;-81
2023/04/26 03:45:40;;;;;;;;;;;;;;;11.97;92.17;97832.72;5030050;28;19991;-81
2023/04/26 03:48:06;;;;;;;;;;;;;;;11.79;92.78;97838.69;5028948;28;20019;-81
2023/04/26 03:50:32;;;;;;;;;;;;;;;11.84;93.14;97844.81;5028818;28;20495;-81
2023/04/26 03:52:59;;;;;;;;;;;;;;;11.87;92.32;97844.25;5029144;28;19999;-80
2023/04/26 03:55:25;;;;;;;;;;;;;;;11.89;91.84;97847.47;5016253;28;19967;-80
2023/04/26 03:57:53;;;;;;;;;;;;;;;11.85;91.71;97851.75;5027820;28;19975;-80
2023/04/26 04:00:20;;;;;;;;;;;;;;;11.85;91.63;97853.66;5028683;28;19932;-81
2023/04/26 04:02:46;;;;;;;;;;;;;;;11.81;91.48;97853.38;5027805;28;20031;-81
2023/04/26 04:05:12;;;;;;;;;;;;;;;11.82;91.21;97854.19;5029067;28;19929;-81
2023/04/26 04:07:39;;;;;;;;;;;;;;;11.80;90.77;97859.00;5029323;28;19973;-81
2023/04/26 04:10:06;;;;;;;;;;;;;;;11.81;90.88;97857.94;5029232;28;20011;-80
2023/04/26 04:12:32;;;;;;;;;;;;;;;11.66;91.13;97863.28;5029437;28;19976;-81
2023/04/26 04:15:00;;;;;;;;;;;;;;;11.03;94.51;97870.81;5028900;28;20438;-79
2023/04/26 04:17:26;;;;;;;;;;;;;;;10.93;98.33;97869.97;5028491;28;19925;-81
2023/04/26 04:19:53;;;;;;;;;;;;;;;11.10;98.71;97870.53;5026389;28;20024;-80
2023/04/26 04:22:19;;;;;;;;;;;;;;;10.79;98.94;97870.53;5014732;28;19933;-80
2023/04/26 04:24:46;;;;;;;;;;;;;;;10.77;100.00;97863.81;5013707;28;20008;-80
2023/04/26 04:27:15;;;;;;;;;;;;;;;10.89;100.00;97871.59;5005557;28;19975;-81
2023/04/26 04:29:41;;;;;;;;;;;;;;;10.99;100.00;97879.59;5012322;28;20324;-81
2023/04/26 04:32:10;;;;;;;;;;;;;;;10.99;99.40;97879.59;5026223;28;19957;-82
2023/04/26 04:34:36;;;;;;;;;;;;;;;11.26;98.58;97875.59;5030232;28;19925;-81
2023/04/26 04:37:04;;;;;;;;;;;;;;;11.32;97.03;97874.56;5012356;28;20349;-80
2023/04/26 04:39:30;;;;;;;;;;;;;;;11.19;97.01;97880.44;5028078;28;19936;-80
2023/04/26 04:41:57;;;;;;;;;;;;;;;11.03;98.44;97875.34;5026735;28;19971;-81
2023/04/26 04:44:25;;;;;;;;;;;;;;;11.20;98.55;97890.03;5027069;28;20090;-81
2023/04/26 04:46:52;;;;;;;;;;;;;;;11.38;97.10;97886.06;5031310;28;19969;-81
2023/04/26 04:49:19;;;;;;;;;;;;;;;11.53;95.71;97886.03;5033531;28;20450;-81
2023/04/26 04:51:46;;;;;;;;;;;;;;;11.61;94.36;97892.69;5040691;28;19978;-82
2023/04/26 04:54:13;;;;;;;;;;;;;;;11.53;94.08;97891.38;5030757;28;19925;-81
2023/04/26 04:56:39;;;;;;;;;;;;;;;11.04;95.96;97901.00;5030483;28;19925;-81
2023/04/26 04:59:06;;;;;;;;;;;;;;;11.20;97.39;97910.66;5032043;28;20576;-81
2023/04/26 05:01:33;;;;;;;;;;;;;;;11.11;98.04;97907.69;5049506;28;20479;-80
2023/04/26 05:03:59;;;;;;;;;;;;;;;11.14;98.61;97906.38;5032724;28;19925;-81
2023/04/26 05:06:27;;;;;;;;;;;;;;;11.08;97.89;97908.22;5032947;28;20376;-81
2023/04/26 05:08:56;;;;;;;;;;;;;;;11.03;98.51;97904.75;5034190;28;22764;-80
2023/04/26 05:11:22;;;;;;;;;;;;;;;11.16;98.79;97901.56;5034310;28;20016;-80
2023/04/26 05:13:49;;;;;;;;;;;;;;;11.17;98.19;97911.97;5034686;28;19931;-80
2023/04/26 05:16:15;;;;;;;;;;;;;;;11.02;99.27;97913.81;5033390;28;20012;-80
2023/04/26 05:18:42;;;;;;;;;;;;;;;11.26;98.40;97913.03;5032816;28;20577;-80
2023/04/26 05:21:08;;;;;;;;;;;;;;;11.41;97.19;97920.28;5031270;28;19925;-80
2023/04/26 05:23:36;;;;;;;;;;;;;;;11.54;95.88;97921.59;5035050;28;20016;-79
2023/04/26 05:26:03;;;;;;;;;;;;;;;11.42;95.60;97911.16;5043900;28;20107;-82
2023/04/26 05:28:30;;;;;;;;;;;;;;;11.58;95.25;97914.63;5031453;28;19932;-81
2023/04/26 05:30:56;;;;;;;;;;;;;;;11.62;94.25;97923.72;5029896;28;19968;-81
2023/04/26 05:33:23;;;;;;;;;;;;;;;11.65;93.60;97915.97;5038487;28;20412;-81
2023/04/26 05:35:49;;;;;;;;;;;;;;;11.67;92.85;97921.03;5015630;28;19972;-78
2023/04/26 05:38:16;;;;;;;;;;;;;;;11.65;92.77;97915.97;5024828;28;20020;-78
2023/04/26 05:40:44;;;;;;;;;;;;;;;11.71;92.01;97906.91;5020118;28;20477;-79
2023/04/26 05:43:10;;;;;;;;;;;;;;;11.83;91.23;97911.97;5027913;28;19948;-78
2023/04/26 05:45:37;;;;;;;;;;;;;;;11.80;90.32;97913.31;5013591;28;20016;-80
2023/04/26 05:48:03;;;;;;;;;;;;;;;11.74;90.08;97917.06;5030539;28;19929;-79
2023/04/26 05:50:30;;;;;;;;;;;;;;;11.73;90.74;97925.34;5009023;28;19964;-78
2023/04/26 05:52:56;;;;;;;;;;;;;;;11.68;89.51;97922.66;5009202;28;19926;-78
2023/04/26 05:55:23;;;;;;;;;;;;;;;11.68;91.25;97926.13;5002294;28;20020;-79
2023/04/26 05:57:50;;;;;;;;;;;;;;;11.60;90.61;97924.03;5014655;28;20340;-79
2023/04/26 06:00:19;;;;;;;;;;;;;;;11.69;91.06;97917.06;5019583;28;20008;-79
2023/04/26 06:02:46;;;;;;;;;;;;;;;11.50;88.98;97926.69;5023037;28;20448;-79
2023/04/26 06:05:12;;;;;;;;;;;;;;;11.33;88.98;97918.91;5017336;28;20021;-79
2023/04/26 06:07:38;;;;;;;;;;;;;;;10.71;89.82;97918.28;5029924;28;19929;-79
2023/04/26 06:10:06;;;;;;;;;;;;;;;10.86;94.43;97912.22;5025188;28;19925;-79
2023/04/26 06:12:32;;;;;;;;;;;;;;;11.16;94.44;97923.75;5019335;28;19925;-78
2023/04/26 06:15:00;;;;;;;;;;;;;;;11.45;92.88;97926.66;5018815;28;20011;-77
2023/04/26 06:17:26;;;;;;;;;;;;;;;11.63;91.29;97923.47;5032159;28;19925;-78
2023/04/26 06:19:52;;;;;;;;;;;;;;;11.52;90.36;97921.88;5025055;28;19936;-79
2023/04/26 06:22:19;;;;;;;;;;;;;;;11.69;90.25;97927.75;5011635;28;20016;-79
2023/04/26 06:24:45;;;;;;;;;;;;;;;11.81;89.28;97940.88;5023674;28;20032;-79
2023/04/26 06:27:11;;;;;;;;;;;;;;;11.72;87.10;97947.84;5026725;28;20362;-79
2023/04/26 06:29:38;;;;;;;;;;;;;;;11.33;86.01;97945.66;5027366;28;19980;-78
2023/04/26 06:32:06;;;;;;;;;;;;;;;10.99;90.06;97944.53;5013780;28;19962;-78
2023/04/26 06:34:32;;;;;;;;;;;;;;;10.90;87.19;97940.78;5018586;28;20525;-78
2023/04/26 06:36:59;;;;;;;;;;;;;;;11.30;90.18;97940.03;5025394;28;19929;-78
2023/04/26 06:39:25;;;;;;;;;;;;;;;11.61;88.07;97952.34;5020571;28;20022;-78
2023/04/26 06:41:51;;;;;;;;;;;;;;;11.85;85.67;97941.94;5030289;28;19929;-79
2023/04/26 06:44:18;;;;;;;;;;;;;;;11.70;77.21;97966.00;5009421;28;19973;-78
2023/04/26 06:46:44;;;;;;;;;;;;;;;11.01;77.84;97957.66;5008098;28;20012;-80
2023/04/26 06:49:12;;;;;;;;;;;;;;;10.71;77.47;97961.84;5010733;28;20363;-78
2023/04/26 06:51:38;;;;;;;;;;;;;;;11.07;83.11;97961.94;5025046;28;19997;-79
2023/04/26 06:54:04;;;;;;;;;;;;;;;11.43;84.20;97960.09;5012336;28;19981;-78
2023/04/26 06:56:31;;;;;;;;;;;;;;;11.45;79.55;97964.09;5032962;28;19925;-79
2023/04/26 06:58:59;;;;;;;;;;;;;;;11.58;82.40;97958.22;5016799;28;19929;-79
2023/04/26 07:01:27;;;;;;;;;;;;;;;11.86;80.62;97959.59;5021267;28;19976;-79
2023/04/26 07:03:54;;;;;;;;;;;;;;;11.40;74.51;97956.09;5026528;28;19933;-79
2023/04/26 07:06:22;;;;;;;;;;;;;;;11.07;75.03;97961.94;5025283;28;20038;-79
2023/04/26 07:08:48;;;;;;;;;;;;;;;11.50;79.43;97966.00;5026388;28;19932;-79
2023/04/26 07:11:15;;;;;;;;;;;;;;;11.60;79.20;97966.00;5020424;28;19964;-79
2023/04/26 07:13:41;;;;;;;;;;;;;;;11.65;77.59;97960.66;5024456;28;20511;-78
2023/04/26 07:16:07;;;;;;;;;;;;;;;11.75;75.86;97968.69;5020018;28;20366;-79
2023/04/26 07:18:34;;;;;;;;;;;;;;;11.87;76.00;97971.91;5020860;28;20025;-78
2023/04/26 07:21:00;;;;;;;;;;;;;;;11.16;69.95;97968.38;5016190;28;20024;-79
2023/04/26 07:23:29;;;;;;;;;;;;;;;11.12;74.00;97964.63;5024621;28;20025;-79
2023/04/26 07:25:55;;;;;;;;;;;;;;;11.38;78.93;97963.59;5016424;28;20004;-79
2023/04/26 07:28:22;;;;;;;;;;;;;;;11.58;75.23;97968.13;5024833;28;19986;-80
2023/04/26 07:30:48;;;;;;;;;;;;;;;11.62;76.64;97964.66;5007717;28;20019;-80
2023/04/26 07:33:14;;;;;;;;;;;;;;;11.49;74.21;97970.53;5010624;28;19926;-80
2023/04/26 07:35:42;;;;;;;;;;;;;;;11.24;74.53;97970.50;5003279;28;20441;-79
2023/04/26 07:38:09;;;;;;;;;;;;;;;11.76;77.86;97963.06;5014969;28;19925;-80
2023/04/26 07:40:36;;;;;;;;;;;;;;;11.98;76.18;97967.31;5028385;28;19995;-80
2023/04/26 07:43:03;;;;;;;;;;;;;;;12.12;73.89;97963.03;5016839;28;19932;-78
2023/04/26 07:45:29;;;;;;;;;;;;;;;12.19;74.06;97969.69;5002533;28;20015;-78
2023/04/26 07:47:56;;;;;;;;;;;;;;;12.15;73.49;97967.84;5015585;28;19932;-78
2023/04/26 07:50:22;;;;;;;;;;;;;;;12.10;72.50;97960.59;5018419;28;20016;-79
2023/04/26 07:52:48;;;;;;;;;;;;;;;12.17;71.89;97958.44;5016226;28;19980;-78
2023/04/26 07:55:15;;;;;;;;;;;;;;;11.75;68.19;97963.34;5002687;28;19969;-80
2023/04/26 07:57:42;;;;;;;;;;;;;;;11.36;71.09;97960.38;5011276;28;20452;-77
2023/04/26 08:00:10;;;;;;;;;;;;;;;11.81;75.10;97955.06;5012408;28;19929;-79
2023/04/26 08:02:36;;;;;;;;;;;;;;;11.93;72.01;97944.06;5016825;28;19925;-78
2023/04/26 08:05:03;;;;;;;;;;;;;;;12.20;71.40;97951.75;5018940;28;20020;-79
2023/04/26 08:07:29;;;;;;;;;;;;;;;12.05;68.47;97957.16;5025236;28;19932;-79
2023/04/26 08:09:56;;;;;;;;;;;;;;;12.22;70.06;97949.63;5022753;28;19941;-78
2023/04/26 08:12:22;;;;;;;;;;;;;;;12.13;68.41;97948.56;5024512;28;19931;-79
2023/04/26 08:14:50;;;;;;;;;;;;;;;12.42;68.54;97954.91;5027651;28;20027;-78
2023/04/26 08:17:16;;;;;;;;;;;;;;;12.64;67.88;97944.63;5027462;28;19933;-79
2023/04/26 08:19:42;;;;;;;;;;;;;;;12.78;66.74;97950.97;5026041;28;20006;-79
2023/04/26 08:22:09;;;;;;;;;;;;;;;12.83;66.57;97948.31;5021748;28;19931;-79
2023/04/26 08:24:35;;;;;;;;;;;;;;;12.67;66.06;97943.28;5024374;28;19995;-79
2023/04/26 08:27:02;;;;;;;;;;;;;;;12.94;65.21;97955.19;5021771;28;19933;-78
2023/04/26 08:29:28;;;;;;;;;;;;;;;13.08;62.98;97949.22;5004902;28;19926;-78
2023/04/26 08:31:56;;;;;;;;;;;;;;;13.09;62.64;97948.19;5010176;28;19925;-79
2023/04/26 08:34:22;;;;;;;;;;;;;;;13.14;60.17;97942.78;5023342;28;19935;-79
2023/04/26 08:36:49;;;;;;;;;;;;;;;12.72;59.38;97945.94;5018532;28;19964;-78
2023/04/26 08:39:16;;;;;;;;;;;;;;;12.79;59.55;97951.78;5009937;28;19935;-78
2023/04/26 08:41:43;;;;;;;;;;;;;;;12.90;60.19;97951.44;5025345;28;19925;-79
2023/04/26 08:44:09;;;;;;;;;;;;;;;12.75;60.00;97942.72;5025328;28;19931;-79
2023/04/26 08:46:40;;;;;;;;;;;;;;;13.03;61.71;97951.94;5008951;28;20020;-79
2023/04/26 08:49:13;;;;;;;;;;;;;;;12.64;57.83;97944.63;5018285;28;19933;-78
2023/04/26 08:51:40;;;;;;;;;;;;;;;12.73;59.64;97953.69;5020686;28;20100;-79
2023/04/26 08:54:07;;;;;;;;;;;;;;;13.22;58.72;97944.84;5023975;28;19926;-80
2023/04/26 08:56:35;;;;;;;;;;;;;;;12.68;56.48;97945.69;5007897;28;20033;-79
2023/04/26 08:59:01;;;;;;;;;;;;;;;13.34;58.34;97942.63;5008335;28;19929;-78
2023/04/26 09:01:29;;;;;;;;;;;;;;;13.70;58.36;97949.34;5012622;28;19983;-79
2023/04/26 09:03:56;;;;;;;;;;;;;;;13.95;56.35;97954.47;5023147;28;19929;-78
2023/04/26 09:06:26;;;;;;;;;;;;;;;13.64;51.33;97944.28;5028043;28;20020;-79
2023/04/26 09:08:54;;;;;;;;;;;;;;;13.05;53.92;97939.88;5026724;28;20017;-78
2023/04/26 09:11:21;;;;;;;;;;;;;;;13.30;55.58;97946.97;5022156;28;20020;-78
2023/04/26 09:13:47;;;;;;;;;;;;;;;13.65;55.50;97945.91;5010841;28;19958;-80
2023/04/26 09:16:14;;;;;;;;;;;;;;;13.71;54.62;97952.81;5010764;28;19929;-79
2023/04/26 09:18:47;;;;;;;;;;;;;;;13.86;54.13;97942.75;5012375;28;19925;-79
2023/04/26 09:21:16;;;;;;;;;;;;;;;13.77;49.91;97939.03;5022092;28;20420;-79
2023/04/26 09:23:57;;;;;;;;;;;;;;;13.86;53.03;97940.06;5008581;28;20016;-78
2023/04/26 09:26:25;;;;;;;;;;;;;;;13.89;51.73;97942.19;5020128;28;20027;-79
2023/04/26 09:29:10;;;;;;;;;;;;;;;13.75;48.93;97938.53;5027818;28;20564;-78
2023/04/26 09:31:38;;;;;;;;;;;;;;;13.78;53.29;97942.53;5013728;28;20426;-78
2023/04/26 09:34:04;;;;;;;;;;;;;;;13.97;52.24;97936.19;5021581;28;19925;-79
2023/04/26 09:36:31;;;;;;;;;;;;;;;13.60;48.95;97927.13;5022700;28;19932;-78
2023/04/26 09:38:58;;;;;;;;;;;;;;;13.92;52.17;97933.56;5014213;28;19932;-79
2023/04/26 09:41:30;;;;;;;;;;;;;;;13.12;48.91;97928.88;5017140;28;20012;-79
2023/04/26 09:43:56;;;;;;;;;;;;;;;13.23;50.12;97933.06;5022798;28;19931;-78
2023/04/26 09:46:22;;;;;;;;;;;;;;;13.03;48.81;97933.19;5021266;28;19999;-79
2023/04/26 09:49:00;;;;;;;;;;;;;;;13.20;50.29;97923.69;5028359;28;19955;-78
2023/04/26 09:51:27;;;;;;;;;;;;;;;13.24;50.16;97932.00;5018940;28;19984;-79
2023/04/26 09:53:54;;;;;;;;;;;;;;;13.15;49.24;97931.75;5022815;28;19976;-79
2023/04/26 09:56:22;;;;;;;;;;;;;;;13.67;49.29;97941.03;5029427;28;19925;-81
2023/04/26 09:58:58;;;;;;;;;;;;;;;13.98;49.07;97934.31;5028396;28;20012;-79
2023/04/26 10:01:25;;;;;;;;;;;;;;;14.22;50.25;97935.13;5028636;28;19925;-78
2023/04/26 10:03:51;;;;;;;;;;;;;;;13.67;47.51;97941.03;5027569;28;19929;-79
2023/04/26 10:06:18;;;;;;;;;;;;;;;13.48;45.96;97936.38;5024464;28;19935;-79
2023/04/26 10:08:45;;;;;;;;;;;;;;;13.68;49.39;97943.41;5028818;28;19975;-78
2023/04/26 10:11:12;;;;;;;;;;;;;;;13.47;45.80;97926.69;5027626;28;19925;-78
2023/04/26 10:13:41;;;;;;;;;;;;;;;13.53;48.76;97933.63;5019136;28;19929;-81
2023/04/26 10:16:08;;;;;;;;;;;;;;;13.87;48.48;97938.97;5024639;28;19932;-79
2023/04/26 10:18:35;;;;;;;;;;;;;;;13.66;47.98;97932.19;5022955;28;20035;-78
2023/04/26 10:21:04;;;;;;;;;;;;;;;13.69;48.44;97931.63;5017654;28;19925;-78
2023/04/26 10:23:32;;;;;;;;;;;;;;;13.96;48.81;97918.47;5012151;28;20016;-79
2023/04/26 10:25:58;;;;;;;;;;;;;;;14.06;47.05;97925.63;5015133;28;19926;-79
2023/04/26 10:28:42;;;;;;;;;;;;;;;13.61;46.37;97916.13;5005607;28;19925;-79
2023/04/26 10:31:10;;;;;;;;;;;;;;;14.13;48.12;97919.91;5005682;28;19929;-79
2023/04/26 10:33:36;;;;;;;;;;;;;;;13.70;44.59;97908.25;5014921;28;20784;-79
2023/04/26 10:36:07;;;;;;;;;;;;;;;13.37;46.42;97909.88;5016019;28;20035;-77
2023/04/26 10:38:35;;;;;;;;;;;;;;;13.44;48.24;97913.03;5025433;28;20436;-78
2023/04/26 10:41:20;;;;;;;;;;;;;;;13.33;45.46;97916.91;5022435;28;19961;-78
2023/04/26 10:43:46;;;;;;;;;;;;;;;13.40;47.72;97922.75;5011585;28;19933;-79
2023/04/26 10:46:31;;;;;;;;;;;;;;;13.59;46.99;97923.66;5017591;28;19925;-79
2023/04/26 10:48:59;;;;;;;;;;;;;;;13.45;46.17;97917.34;5019968;28;19936;-80
2023/04/26 10:51:26;;;;;;;;;;;;;;;13.69;48.37;97912.03;5011917;28;19931;-79
2023/04/26 10:53:58;;;;;;;;;;;;;;;14.12;48.20;97902.19;5024086;28;19933;-79
2023/04/26 10:56:48;;;;;;;;;;;;;;;14.33;47.95;97892.84;5013895;28;19929;-80
2023/04/26 10:59:19;;;;;;;;;;;;;;;14.08;45.56;97901.94;5027082;28;20035;-79
2023/04/26 11:01:45;;;;;;;;;;;;;;;14.22;46.92;97904.75;5027399;28;19936;-78
2023/04/26 11:04:13;;;;;;;;;;;;;;;13.90;47.03;97903.50;5025280;28;19925;-79
2023/04/26 11:06:49;;;;;;;;;;;;;;;14.01;45.81;97898.81;5011292;28;19929;-79
2023/04/26 11:09:36;;;;;;;;;;;;;;;13.58;45.14;97895.22;5029519;28;19929;-79
2023/04/26 11:12:04;;;;;;;;;;;;;;;13.42;45.45;97894.56;5029184;28;19929;-79
2023/04/26 11:14:30;;;;;;;;;;;;;;;13.31;45.39;97893.03;5028378;28;19987;-79
2023/04/26 11:16:56;;;;;;;;;;;;;;;13.21;44.69;97892.31;5019052;28;20024;-79
2023/04/26 11:19:26;;;;;;;;;;;;;;;12.72;44.70;97887.78;5019759;28;19929;-77
2023/04/26 11:21:52;;;;;;;;;;;;;;;13.12;47.10;97896.69;5019710;28;20031;-79
2023/04/26 11:24:24;;;;;;;;;;;;;;;13.37;46.73;97893.78;5024760;28;20397;-78
2023/04/26 11:26:51;;;;;;;;;;;;;;;13.29;44.71;97889.84;5022340;28;20020;-78
2023/04/26 11:29:18;;;;;;;;;;;;;;;13.18;45.24;97884.84;5012237;28;20016;-79
2023/04/26 11:31:50;;;;;;;;;;;;;;;13.44;47.02;97894.28;5023852;28;19925;-79
2023/04/26 11:34:16;;;;;;;;;;;;;;;13.51;44.94;97884.81;5005602;28;20032;-79
2023/04/26 11:36:46;;;;;;;;;;;;;;;13.91;46.83;97889.00;5019560;28;20272;-78
2023/04/26 11:39:13;;;;;;;;;;;;;;;14.11;46.36;97889.88;5020367;28;20492;-78
2023/04/26 11:41:39;;;;;;;;;;;;;;;14.01;44.26;97885.41;5017191;28;19925;-78
2023/04/26 11:44:06;;;;;;;;;;;;;;;14.10;46.48;97885.56;5009116;28;19960;-78
2023/04/26 11:46:32;;;;;;;;;;;;;;;14.32;45.91;97880.47;5008271;28;20431;-79
2023/04/26 11:48:58;;;;;;;;;;;;;;;14.35;45.40;97872.69;5021966;28;20373;-78
2023/04/26 11:51:25;;;;;;;;;;;;;;;14.39;45.44;97871.00;5014857;28;19925;-79
2023/04/26 11:53:53;;;;;;;;;;;;;;;14.40;46.11;97869.91;5021239;28;19960;-78
2023/04/26 11:56:21;;;;;;;;;;;;;;;14.47;46.63;97881.13;4994567;28;20142;-78
2023/04/26 11:58:49;;;;;;;;;;;;;;;14.15;45.99;97872.06;4999479;28;19979;-78
2023/04/26 12:01:22;;;;;;;;;;;;;;;14.17;46.93;97870.72;5017955;28;19929;-79
2023/04/26 12:03:49;;;;;;;;;;;;;;;14.15;46.52;97890.88;5011912;28;19929;-78
2023/04/26 12:06:16;;;;;;;;;;;;;;;14.13;44.69;97879.63;5015695;28;19925;-79
2023/04/26 12:08:49;;;;;;;;;;;;;;;13.99;46.43;97877.63;5025136;28;19956;-78
2023/04/26 12:11:17;;;;;;;;;;;;;;;14.27;46.13;97875.16;5018881;28;19994;-80
2023/04/26 12:13:45;;;;;;;;;;;;;;;14.11;46.45;97884.50;5016862;28;19931;-80
2023/04/26 12:16:12;;;;;;;;;;;;;;;14.38;49.33;97879.34;5026777;28;19929;-78
2023/04/26 12:18:38;;;;;;;;;;;;;;;14.50;49.14;97879.75;5024571;28;19925;-79
2023/04/26 12:21:05;;;;;;;;;;;;;;;14.55;47.55;97876.97;5025715;28;19924;-79
2023/04/26 12:23:37;;;;;;;;;;;;;;;14.69;46.78;97877.06;5019370;28;20535;-78
2023/04/26 12:26:05;;;;;;;;;;;;;;;14.59;45.34;97878.00;5009226;28;20332;-79
2023/04/26 12:28:33;;;;;;;;;;;;;;;14.39;45.67;97872.91;5034831;28;19936;-78
2023/04/26 12:31:00;;;;;;;;;;;;;;;14.34;46.23;97870.25;5024120;28;19929;-78
2023/04/26 12:33:26;;;;;;;;;;;;;;;14.45;46.34;97877.91;5009830;28;20409;-81
2023/04/26 12:35:53;;;;;;;;;;;;;;;14.45;47.09;97861.00;5020392;28;19961;-79
2023/04/26 12:38:19;;;;;;;;;;;;;;;14.35;46.07;97866.50;5008753;28;19926;-78
2023/04/26 12:40:46;;;;;;;;;;;;;;;14.26;45.82;97860.94;5004531;28;20494;-78
2023/04/26 12:43:12;;;;;;;;;;;;;;;14.06;46.38;97864.66;5018658;28;20436;-80
2023/04/26 12:45:40;;;;;;;;;;;;;;;14.24;46.52;97860.41;5011327;28;19987;-78